createdAt,value
2022-11-08T00:29:27.170Z,7.72
2022-11-08T03:49:12.474Z,4.80
2022-11-08T04:20:03.340Z,11.73
2022-11-08T05:11:24.047Z,9.88
2022-11-08T05:56:33.166Z,8.10
2022-11-08T06:45:30.023Z,6.13
2022-11-08T06:48:22.376Z,6.90
2022-11-08T07:07:17.978Z,5.85
2022-11-08T07:09:45.483Z,5.65
2022-11-08T07:33:09.848Z,5.28
2022-11-08T07:51:56.924Z,6.65
2022-11-08T08:23:30.801Z,12.00
2022-11-08T08:33:35.813Z,64.20
2022-11-08T08:39:29.972Z,15.68
2022-11-08T08:49:05.432Z,15.60
2022-11-08T08:51:52.454Z,15.27
2022-11-08T08:54:29.284Z,19.75
2022-11-08T08:57:02.008Z,20.50
2022-11-08T09:02:48.863Z,11.35
2022-11-08T09:21:51.876Z,8.50
2022-11-08T09:48:40.127Z,14.63
2022-11-08T09:51:30.627Z,14.02
2022-11-08T09:54:08.419Z,11.18
2022-11-08T09:56:39.376Z,10.75
2022-11-08T10:13:29.135Z,8.40
2022-11-08T11:57:03.379Z,6.25
2022-11-08T12:03:49.075Z,6.53
2022-11-08T12:07:05.002Z,6.38
2022-11-08T12:35:20.327Z,5.75
2022-11-08T12:51:07.867Z,5.38
2022-11-08T12:57:44.724Z,5.40
2022-11-08T13:00:35.221Z,5.47
2022-11-08T13:07:04.601Z,5.78
2022-11-08T13:10:53.267Z,5.10
2022-11-08T13:14:05.576Z,5.05
2022-11-08T13:16:53.826Z,5.43
2022-11-08T13:32:34.932Z,4.78
2022-11-08T13:39:14.336Z,5.10
2022-11-08T13:56:05.435Z,6.38
2022-11-08T14:05:24.336Z,7.20
2022-11-08T14:08:06.722Z,6.78
2022-11-08T14:10:52.554Z,7.80
2022-11-08T14:18:01.290Z,6.75
2022-11-08T14:26:49.729Z,8.68
2022-11-08T14:29:38.430Z,10.85
2022-11-08T14:33:00.074Z,12.32
2022-11-08T14:48:05.130Z,13.43
2022-11-08T14:58:00.566Z,11.10
2022-11-08T15:01:22.888Z,11.35
2022-11-08T15:23:58.858Z,12.55
2022-11-08T15:26:51.250Z,16.38
2022-11-08T15:32:01.479Z,11.05
2022-11-08T15:34:53.256Z,11.30
2022-11-08T15:40:41.114Z,13.50
2022-11-08T15:43:34.879Z,13.15
2022-11-08T15:46:04.089Z,12.60
2022-11-08T15:48:31.748Z,10.25
2022-11-08T15:50:59.201Z,7.95
2022-11-08T15:53:27.172Z,7.65
2022-11-08T15:55:59.187Z,7.70
2022-11-08T15:58:34.938Z,6.15
2022-11-08T16:01:03.295Z,6.18
2022-11-08T16:03:31.210Z,6.22
2022-11-08T16:06:05.875Z,7.28
2022-11-08T16:08:33.090Z,8.02
2022-11-08T16:11:01.668Z,7.88
2022-11-08T16:13:39.033Z,10.93
2022-11-08T16:16:12.762Z,11.90
2022-11-08T16:18:41.026Z,11.48
2022-11-08T16:21:11.619Z,10.65
2022-11-08T16:23:43.431Z,16.70
2022-11-08T16:26:17.524Z,18.48
2022-11-08T16:28:45.173Z,21.58
2022-11-08T16:31:14.771Z,13.88
2022-11-08T16:33:47.428Z,11.75
2022-11-08T16:36:25.156Z,10.45
2022-11-08T16:39:01.493Z,8.35
2022-11-08T16:41:28.608Z,8.93
2022-11-08T16:43:56.670Z,11.40
2022-11-08T16:46:24.010Z,12.30
2022-11-08T16:48:59.420Z,9.82
2022-11-08T16:51:26.781Z,8.80
2022-11-08T16:53:54.234Z,9.30
2022-11-08T16:56:21.719Z,9.60
2022-11-08T16:58:50.088Z,13.68
2022-11-08T17:01:24.484Z,8.05
2022-11-08T17:03:51.491Z,9.27
2022-11-08T17:06:19.620Z,11.30
2022-11-08T17:08:49.476Z,9.85
2022-11-08T17:11:25.239Z,11.57
2022-11-08T17:13:57.724Z,8.82
2022-11-08T17:16:28.769Z,8.23
2022-11-08T17:19:14.170Z,7.75
2022-11-08T17:21:45.679Z,9.40
2022-11-08T17:24:20.904Z,9.73
2022-11-08T17:26:57.185Z,9.18
2022-11-08T17:29:24.470Z,8.63
2022-11-08T17:31:51.525Z,6.97
2022-11-08T17:34:19.201Z,8.30
2022-11-08T17:36:47.887Z,8.25
2022-11-08T17:39:18.416Z,9.05
2022-11-08T17:41:50.207Z,10.93
2022-11-08T17:44:17.467Z,9.25
2022-11-08T17:46:44.459Z,11.23
2022-11-08T17:49:11.484Z,15.40
2022-11-08T17:51:40.953Z,13.18
2022-11-08T17:54:08.339Z,12.82
2022-11-08T17:56:36.341Z,10.15
2022-11-08T17:59:04.235Z,10.57
2022-11-08T18:01:36.543Z,10.32
2022-11-08T18:04:06.522Z,11.38
2022-11-08T18:06:36.174Z,11.25
2022-11-08T18:09:03.311Z,12.75
2022-11-08T18:11:30.443Z,15.25
2022-11-08T18:13:57.752Z,19.38
2022-11-08T18:16:32.906Z,13.15
2022-11-08T18:19:06.054Z,7.43
2022-11-08T18:21:35.995Z,7.40
2022-11-08T18:24:47.518Z,11.68
2022-11-08T18:27:19.267Z,14.82
2022-11-08T18:29:57.458Z,15.98
2022-11-08T18:33:03.362Z,20.35
2022-11-08T18:35:30.954Z,16.75
2022-11-08T18:37:58.482Z,15.65
2022-11-08T18:41:18.647Z,14.43
2022-11-08T18:43:48.718Z,20.35
2022-11-08T18:46:22.310Z,20.35
2022-11-08T18:48:52.775Z,16.42
2022-11-08T18:51:21.659Z,16.55
2022-11-08T18:54:01.550Z,14.40
2022-11-08T18:56:28.876Z,15.18
2022-11-08T18:58:56.133Z,14.73
2022-11-08T19:01:46.212Z,13.70
2022-11-08T19:04:17.431Z,13.77
2022-11-08T19:06:50.087Z,14.25
2022-11-08T19:09:23.503Z,12.90
2022-11-08T19:11:50.908Z,13.13
2022-11-08T19:14:20.719Z,12.73
2022-11-08T19:16:47.973Z,22.58
2022-11-08T19:19:16.342Z,26.85
2022-11-08T19:21:45.850Z,33.47
2022-11-08T19:24:13.062Z,26.42
2022-11-08T19:26:41.190Z,21.85
2022-11-08T19:29:09.040Z,18.13
2022-11-08T19:31:39.044Z,13.68
2022-11-08T19:34:06.242Z,12.77
2022-11-08T19:36:33.695Z,12.73
2022-11-08T19:39:00.673Z,14.20
2022-11-08T19:41:29.021Z,13.82
2022-11-08T19:43:55.993Z,12.48
2022-11-08T19:46:26.247Z,13.23
2022-11-08T19:48:53.474Z,13.40
2022-11-08T19:51:26.408Z,13.82
2022-11-08T19:54:00.020Z,13.18
2022-11-08T19:56:50.209Z,15.05
2022-11-08T19:59:25.029Z,15.98
2022-11-08T20:01:53.933Z,16.23
2022-11-08T20:04:21.220Z,14.07
2022-11-08T20:06:48.228Z,11.70
2022-11-08T20:09:18.273Z,11.98
2022-11-08T20:11:47.450Z,11.60
2022-11-08T20:17:05.648Z,13.77
2022-11-08T20:19:34.109Z,13.55
2022-11-08T20:22:03.361Z,14.52
2022-11-08T20:24:38.448Z,14.83
2022-11-08T20:27:05.579Z,15.18
2022-11-08T20:29:33.786Z,14.77
2022-11-08T20:32:08.305Z,16.05
2022-11-08T20:34:38.780Z,18.20
2022-11-08T20:37:07.285Z,15.88
2022-11-08T20:39:34.323Z,16.25
2022-11-08T20:42:02.112Z,14.95
2022-11-08T20:44:33.061Z,14.98
2022-11-08T20:47:06.968Z,14.60
2022-11-08T20:49:35.746Z,13.90
2022-11-08T20:52:04.421Z,12.50
2022-11-08T20:54:38.827Z,12.75
2022-11-08T20:57:10.927Z,13.07
2022-11-08T20:59:43.523Z,13.43
2022-11-08T21:02:14.635Z,13.95
2022-11-08T21:04:52.069Z,12.63
2022-11-08T21:10:40.931Z,16.48
2022-11-08T21:13:06.324Z,20.40
2022-11-08T21:15:37.765Z,15.30
2022-11-08T21:18:09.201Z,14.88
2022-11-08T21:20:36.158Z,9.57
2022-11-08T21:23:06.102Z,13.32
2022-11-08T21:25:35.622Z,14.63
2022-11-08T21:28:03.644Z,13.45
2022-11-08T21:30:36.703Z,15.60
2022-11-08T21:33:06.477Z,16.92
2022-11-08T21:35:37.693Z,15.73
2022-11-08T21:38:08.834Z,15.75
2022-11-08T21:40:39.230Z,16.15
2022-11-08T21:43:06.184Z,15.55
2022-11-08T21:45:33.191Z,14.73
2022-11-08T21:48:09.849Z,11.95
2022-11-08T21:50:41.676Z,16.73
2022-11-08T21:53:15.377Z,21.38
2022-11-08T21:55:42.531Z,20.85
2022-11-08T21:58:10.074Z,16.40
2022-11-08T22:00:40.914Z,17.25
2022-11-08T22:03:11.643Z,15.95
2022-11-08T22:05:40.104Z,13.98
2022-11-08T22:08:10.264Z,12.23
2022-11-08T22:10:38.478Z,11.10
2022-11-08T22:13:07.574Z,17.33
2022-11-08T22:15:37.420Z,20.20
2022-11-08T22:18:31.179Z,22.23
2022-11-08T22:21:11.448Z,21.00
2022-11-08T22:23:38.458Z,21.35
2022-11-08T22:26:05.563Z,23.48
2022-11-08T22:28:33.036Z,21.70
2022-11-08T22:31:02.527Z,21.42
2022-11-08T22:33:34.347Z,20.83
2022-11-08T22:36:03.652Z,19.80
2022-11-08T22:38:46.966Z,20.20
2022-11-08T22:41:24.982Z,22.27
2022-11-08T22:43:59.403Z,19.90
2022-11-08T22:46:31.471Z,20.40
2022-11-08T22:49:00.103Z,21.15
2022-11-08T22:51:37.885Z,20.40
2022-11-08T22:54:37.255Z,18.73
2022-11-08T22:57:05.925Z,20.55
2022-11-08T22:59:33.919Z,20.67
2022-11-08T23:02:11.137Z,20.20
2022-11-08T23:04:40.128Z,20.55
2022-11-08T23:07:09.085Z,20.67
2022-11-08T23:09:49.069Z,20.38
2022-11-08T23:12:40.337Z,19.95
2022-11-08T23:15:26.412Z,21.15
2022-11-08T23:17:57.117Z,19.92
2022-11-08T23:20:45.824Z,18.10
2022-11-08T23:23:33.579Z,19.00
2022-11-08T23:26:01.066Z,18.83
2022-11-08T23:28:49.891Z,19.02
2022-11-08T23:31:35.507Z,19.08
2022-11-08T23:34:04.445Z,18.25
2022-11-08T23:36:31.533Z,19.17
2022-11-08T23:38:59.098Z,18.75
2022-11-08T23:41:47.072Z,19.13
2022-11-08T23:44:27.285Z,18.85
2022-11-08T23:47:00.044Z,18.67
2022-11-08T23:49:30.457Z,18.02
2022-11-08T23:51:59.220Z,16.95
2022-11-08T23:54:31.354Z,18.42
2022-11-08T23:56:58.975Z,18.30
2022-11-08T23:59:28.520Z,17.33
